Edison, Washington
Current Conditions -  °F | °C
As of 10:55 PM on Saturday 22 Nov 2014 (Local Time) from KBVS Reporting Station
Overcast Overcast  
Wind Chill: 42°   Ceiling: 3300
Heat Index: 45°   Visibility: 7mi
Dew Point: 45°   Wind: 5mph
Humidity: 100%   Direction: 170°S
Pressure: 30.1"   Gusts: NA
Location:  48.5689°N, 122.407°W
Report Text: KBVS 230655Z AUTO 17004KT 7SM FEW001 FEW023 OVC033 07/07 A3010 RMK A01 P002
Loading
Personal Weather Stations






























Interactive Weather Map New forecast layout! Learn more

10-Day Weather Forecast

Advertisements
Track Severe Weather on mobile